sensor_id;sensor_type;location;lat;lon;timestamp;P1;durP1;ratioP1;P2;durP2;ratioP2
7166;SDS011;3625;51.762;14.320;2023-05-18T00:00:06;3.47;;;2.43;;
7166;SDS011;3625;51.762;14.320;2023-05-18T00:02:40;5.20;;;2.97;;
7166;SDS011;3625;51.762;14.320;2023-05-18T00:05:09;4.37;;;2.60;;
7166;SDS011;3625;51.762;14.320;2023-05-18T00:07:37;6.90;;;3.10;;
7166;SDS011;3625;51.762;14.320;2023-05-18T00:10:07;8.03;;;3.40;;
7166;SDS011;3625;51.762;14.320;2023-05-18T00:12:37;6.50;;;3.00;;
7166;SDS011;3625;51.762;14.320;2023-05-18T00:15:08;8.03;;;2.70;;
7166;SDS011;3625;51.762;14.320;2023-05-18T00:17:37;8.00;;;2.60;;
7166;SDS011;3625;51.762;14.320;2023-05-18T00:20:08;7.23;;;2.90;;
7166;SDS011;3625;51.762;14.320;2023-05-18T00:22:37;6.53;;;2.80;;
7166;SDS011;3625;51.762;14.320;2023-05-18T00:25:08;6.07;;;3.30;;
7166;SDS011;3625;51.762;14.320;2023-05-18T00:27:36;5.50;;;2.90;;
7166;SDS011;3625;51.762;14.320;2023-05-18T00:30:05;6.90;;;2.43;;
7166;SDS011;3625;51.762;14.320;2023-05-18T00:32:37;4.53;;;2.30;;
7166;SDS011;3625;51.762;14.320;2023-05-18T00:35:05;8.07;;;2.90;;
7166;SDS011;3625;51.762;14.320;2023-05-18T00:37:34;5.37;;;2.60;;
7166;SDS011;3625;51.762;14.320;2023-05-18T00:40:03;6.37;;;2.67;;
7166;SDS011;3625;51.762;14.320;2023-05-18T00:42:34;5.60;;;3.00;;
7166;SDS011;3625;51.762;14.320;2023-05-18T00:45:03;4.80;;;2.37;;
7166;SDS011;3625;51.762;14.320;2023-05-18T00:47:34;5.97;;;2.73;;
7166;SDS011;3625;51.762;14.320;2023-05-18T00:50:03;6.43;;;2.80;;
7166;SDS011;3625;51.762;14.320;2023-05-18T00:52:32;6.27;;;2.50;;
7166;SDS011;3625;51.762;14.320;2023-05-18T00:55:03;3.87;;;2.30;;
7166;SDS011;3625;51.762;14.320;2023-05-18T00:57:33;3.50;;;2.30;;
7166;SDS011;3625;51.762;14.320;2023-05-18T01:00:04;3.53;;;2.60;;
7166;SDS011;3625;51.762;14.320;2023-05-18T01:02:38;5.03;;;2.63;;
7166;SDS011;3625;51.762;14.320;2023-05-18T01:05:08;8.87;;;2.50;;
7166;SDS011;3625;51.762;14.320;2023-05-18T01:07:38;5.53;;;2.83;;
7166;SDS011;3625;51.762;14.320;2023-05-18T01:10:11;7.53;;;2.90;;
7166;SDS011;3625;51.762;14.320;2023-05-18T01:12:44;6.70;;;3.07;;
7166;SDS011;3625;51.762;14.320;2023-05-18T01:15:17;5.17;;;2.87;;
7166;SDS011;3625;51.762;14.320;2023-05-18T01:17:56;4.30;;;2.60;;
7166;SDS011;3625;51.762;14.320;2023-05-18T01:20:40;4.87;;;2.50;;
7166;SDS011;3625;51.762;14.320;2023-05-18T01:26:32;7.40;;;2.60;;
7166;SDS011;3625;51.762;14.320;2023-05-18T01:29:07;4.57;;;2.90;;
7166;SDS011;3625;51.762;14.320;2023-05-18T01:31:39;4.20;;;2.63;;
7166;SDS011;3625;51.762;14.320;2023-05-18T01:34:08;3.80;;;2.77;;
7166;SDS011;3625;51.762;14.320;2023-05-18T01:36:36;5.97;;;2.60;;
7166;SDS011;3625;51.762;14.320;2023-05-18T01:39:05;6.63;;;2.90;;
7166;SDS011;3625;51.762;14.320;2023-05-18T01:41:38;3.67;;;2.30;;
7166;SDS011;3625;51.762;14.320;2023-05-18T01:44:17;6.23;;;2.90;;
7166;SDS011;3625;51.762;14.320;2023-05-18T01:46:52;6.63;;;3.03;;
7166;SDS011;3625;51.762;14.320;2023-05-18T01:49:29;6.03;;;2.77;;
7166;SDS011;3625;51.762;14.320;2023-05-18T01:52:02;4.43;;;2.60;;
7166;SDS011;3625;51.762;14.320;2023-05-18T01:54:38;4.30;;;2.53;;
7166;SDS011;3625;51.762;14.320;2023-05-18T01:57:13;6.37;;;2.30;;
7166;SDS011;3625;51.762;14.320;2023-05-18T01:59:47;5.63;;;2.40;;
7166;SDS011;3625;51.762;14.320;2023-05-18T02:02:17;7.60;;;3.50;;
7166;SDS011;3625;51.762;14.320;2023-05-18T02:04:46;3.03;;;2.70;;
7166;SDS011;3625;51.762;14.320;2023-05-18T02:07:15;6.97;;;2.80;;
7166;SDS011;3625;51.762;14.320;2023-05-18T02:09:44;4.47;;;3.00;;
7166;SDS011;3625;51.762;14.320;2023-05-18T02:12:14;6.77;;;2.70;;
7166;SDS011;3625;51.762;14.320;2023-05-18T02:14:43;6.03;;;3.53;;
7166;SDS011;3625;51.762;14.320;2023-05-18T02:17:11;4.47;;;2.83;;
7166;SDS011;3625;51.762;14.320;2023-05-18T02:19:42;3.43;;;2.50;;
7166;SDS011;3625;51.762;14.320;2023-05-18T02:22:10;3.57;;;2.70;;
7166;SDS011;3625;51.762;14.320;2023-05-18T02:24:40;4.40;;;2.73;;
7166;SDS011;3625;51.762;14.320;2023-05-18T02:27:08;5.63;;;3.03;;
7166;SDS011;3625;51.762;14.320;2023-05-18T02:29:38;9.17;;;2.53;;
7166;SDS011;3625;51.762;14.320;2023-05-18T02:32:06;3.70;;;2.90;;
7166;SDS011;3625;51.762;14.320;2023-05-18T02:34:35;5.03;;;3.20;;
7166;SDS011;3625;51.762;14.320;2023-05-18T02:37:07;5.67;;;2.57;;
7166;SDS011;3625;51.762;14.320;2023-05-18T02:39:35;9.13;;;3.67;;
7166;SDS011;3625;51.762;14.320;2023-05-18T02:42:04;6.40;;;3.00;;
7166;SDS011;3625;51.762;14.320;2023-05-18T02:44:34;4.67;;;2.80;;
7166;SDS011;3625;51.762;14.320;2023-05-18T02:47:04;3.67;;;2.77;;
7166;SDS011;3625;51.762;14.320;2023-05-18T02:49:34;5.13;;;2.67;;
7166;SDS011;3625;51.762;14.320;2023-05-18T02:52:03;6.93;;;3.50;;
7166;SDS011;3625;51.762;14.320;2023-05-18T02:54:32;2.93;;;2.40;;
7166;SDS011;3625;51.762;14.320;2023-05-18T02:57:05;5.87;;;3.13;;
7166;SDS011;3625;51.762;14.320;2023-05-18T02:59:42;3.80;;;2.73;;
7166;SDS011;3625;51.762;14.320;2023-05-18T03:02:12;7.93;;;3.80;;
7166;SDS011;3625;51.762;14.320;2023-05-18T03:04:41;5.07;;;2.90;;
7166;SDS011;3625;51.762;14.320;2023-05-18T03:07:11;8.57;;;3.50;;
7166;SDS011;3625;51.762;14.320;2023-05-18T03:09:40;5.30;;;3.10;;
7166;SDS011;3625;51.762;14.320;2023-05-18T03:12:09;6.50;;;3.00;;
7166;SDS011;3625;51.762;14.320;2023-05-18T03:14:37;5.33;;;2.63;;
7166;SDS011;3625;51.762;14.320;2023-05-18T03:17:05;4.53;;;2.90;;
7166;SDS011;3625;51.762;14.320;2023-05-18T03:19:35;5.40;;;3.03;;
7166;SDS011;3625;51.762;14.320;2023-05-18T03:22:04;5.63;;;2.97;;
7166;SDS011;3625;51.762;14.320;2023-05-18T03:24:33;4.67;;;3.03;;
7166;SDS011;3625;51.762;14.320;2023-05-18T03:27:10;3.90;;;3.00;;
7166;SDS011;3625;51.762;14.320;2023-05-18T03:29:42;3.17;;;2.80;;
7166;SDS011;3625;51.762;14.320;2023-05-18T03:32:12;4.60;;;3.03;;
7166;SDS011;3625;51.762;14.320;2023-05-18T03:34:42;5.10;;;3.10;;
7166;SDS011;3625;51.762;14.320;2023-05-18T03:37:13;5.20;;;3.07;;
7166;SDS011;3625;51.762;14.320;2023-05-18T03:39:43;7.43;;;3.47;;
7166;SDS011;3625;51.762;14.320;2023-05-18T03:42:12;5.80;;;3.43;;
7166;SDS011;3625;51.762;14.320;2023-05-18T03:44:40;4.97;;;3.03;;
7166;SDS011;3625;51.762;14.320;2023-05-18T03:47:11;5.90;;;3.30;;
7166;SDS011;3625;51.762;14.320;2023-05-18T03:49:41;6.10;;;3.07;;
7166;SDS011;3625;51.762;14.320;2023-05-18T03:52:10;5.07;;;3.50;;
7166;SDS011;3625;51.762;14.320;2023-05-18T03:54:40;6.47;;;3.10;;
7166;SDS011;3625;51.762;14.320;2023-05-18T03:57:09;4.30;;;2.93;;
7166;SDS011;3625;51.762;14.320;2023-05-18T03:59:38;5.40;;;3.00;;
7166;SDS011;3625;51.762;14.320;2023-05-18T04:02:06;6.30;;;3.13;;
7166;SDS011;3625;51.762;14.320;2023-05-18T04:04:35;8.90;;;3.20;;
7166;SDS011;3625;51.762;14.320;2023-05-18T04:07:08;6.43;;;2.93;;
7166;SDS011;3625;51.762;14.320;2023-05-18T04:09:40;6.10;;;2.87;;
7166;SDS011;3625;51.762;14.320;2023-05-18T04:12:10;6.13;;;3.00;;
7166;SDS011;3625;51.762;14.320;2023-05-18T04:14:38;6.73;;;3.50;;
7166;SDS011;3625;51.762;14.320;2023-05-18T04:17:08;5.87;;;3.70;;
7166;SDS011;3625;51.762;14.320;2023-05-18T04:19:36;4.77;;;3.00;;
7166;SDS011;3625;51.762;14.320;2023-05-18T04:22:05;6.20;;;3.57;;
7166;SDS011;3625;51.762;14.320;2023-05-18T04:24:36;9.20;;;3.60;;
7166;SDS011;3625;51.762;14.320;2023-05-18T04:27:07;7.20;;;3.77;;
7166;SDS011;3625;51.762;14.320;2023-05-18T04:29:37;6.27;;;3.03;;
7166;SDS011;3625;51.762;14.320;2023-05-18T04:32:09;6.53;;;3.43;;
7166;SDS011;3625;51.762;14.320;2023-05-18T04:34:38;6.70;;;2.93;;
7166;SDS011;3625;51.762;14.320;2023-05-18T04:37:07;3.77;;;2.57;;
7166;SDS011;3625;51.762;14.320;2023-05-18T04:39:38;9.73;;;3.47;;
7166;SDS011;3625;51.762;14.320;2023-05-18T04:42:10;9.63;;;3.70;;
7166;SDS011;3625;51.762;14.320;2023-05-18T04:44:41;7.33;;;2.97;;
7166;SDS011;3625;51.762;14.320;2023-05-18T04:47:09;6.70;;;3.07;;
7166;SDS011;3625;51.762;14.320;2023-05-18T04:49:38;12.47;;;3.67;;
7166;SDS011;3625;51.762;14.320;2023-05-18T04:52:06;9.27;;;4.60;;
7166;SDS011;3625;51.762;14.320;2023-05-18T04:54:38;4.40;;;3.20;;
7166;SDS011;3625;51.762;14.320;2023-05-18T04:57:07;5.00;;;3.17;;
7166;SDS011;3625;51.762;14.320;2023-05-18T04:59:35;5.73;;;3.20;;
7166;SDS011;3625;51.762;14.320;2023-05-18T05:02:04;5.90;;;3.30;;
7166;SDS011;3625;51.762;14.320;2023-05-18T05:04:33;6.93;;;3.10;;
7166;SDS011;3625;51.762;14.320;2023-05-18T05:07:01;7.53;;;3.30;;
7166;SDS011;3625;51.762;14.320;2023-05-18T05:09:30;5.57;;;3.27;;
7166;SDS011;3625;51.762;14.320;2023-05-18T05:12:00;5.53;;;3.40;;
7166;SDS011;3625;51.762;14.320;2023-05-18T05:14:28;8.97;;;3.20;;
7166;SDS011;3625;51.762;14.320;2023-05-18T05:16:57;4.40;;;2.77;;
7166;SDS011;3625;51.762;14.320;2023-05-18T05:19:26;6.00;;;2.93;;
7166;SDS011;3625;51.762;14.320;2023-05-18T05:21:54;3.57;;;3.00;;
7166;SDS011;3625;51.762;14.320;2023-05-18T05:24:23;5.13;;;3.43;;
7166;SDS011;3625;51.762;14.320;2023-05-18T05:26:52;9.30;;;4.40;;
7166;SDS011;3625;51.762;14.320;2023-05-18T05:29:21;8.07;;;3.70;;
7166;SDS011;3625;51.762;14.320;2023-05-18T05:31:52;7.83;;;2.83;;
7166;SDS011;3625;51.762;14.320;2023-05-18T05:34:20;5.40;;;3.00;;
7166;SDS011;3625;51.762;14.320;2023-05-18T05:36:49;3.93;;;3.00;;
7166;SDS011;3625;51.762;14.320;2023-05-18T05:39:17;4.73;;;2.80;;
7166;SDS011;3625;51.762;14.320;2023-05-18T05:41:47;8.73;;;3.83;;
7166;SDS011;3625;51.762;14.320;2023-05-18T05:44:15;5.90;;;3.20;;
7166;SDS011;3625;51.762;14.320;2023-05-18T05:46:46;5.90;;;3.03;;
7166;SDS011;3625;51.762;14.320;2023-05-18T05:49:15;7.10;;;3.13;;
7166;SDS011;3625;51.762;14.320;2023-05-18T05:51:43;5.60;;;3.23;;
7166;SDS011;3625;51.762;14.320;2023-05-18T05:54:16;4.67;;;3.00;;
7166;SDS011;3625;51.762;14.320;2023-05-18T05:56:44;4.80;;;2.73;;
7166;SDS011;3625;51.762;14.320;2023-05-18T05:59:15;7.83;;;5.00;;
7166;SDS011;3625;51.762;14.320;2023-05-18T06:01:46;8.87;;;3.77;;
7166;SDS011;3625;51.762;14.320;2023-05-18T06:04:16;5.93;;;3.17;;
7166;SDS011;3625;51.762;14.320;2023-05-18T06:06:46;6.67;;;2.97;;
7166;SDS011;3625;51.762;14.320;2023-05-18T06:09:15;6.87;;;2.80;;
7166;SDS011;3625;51.762;14.320;2023-05-18T06:11:50;6.20;;;3.60;;
7166;SDS011;3625;51.762;14.320;2023-05-18T06:14:19;8.63;;;3.40;;
7166;SDS011;3625;51.762;14.320;2023-05-18T06:16:49;8.73;;;2.80;;
7166;SDS011;3625;51.762;14.320;2023-05-18T06:19:18;5.23;;;3.00;;
7166;SDS011;3625;51.762;14.320;2023-05-18T06:21:47;5.67;;;2.93;;
7166;SDS011;3625;51.762;14.320;2023-05-18T06:24:16;5.73;;;3.30;;
7166;SDS011;3625;51.762;14.320;2023-05-18T06:27:05;5.73;;;3.10;;
7166;SDS011;3625;51.762;14.320;2023-05-18T06:29:57;5.80;;;3.00;;
7166;SDS011;3625;51.762;14.320;2023-05-18T06:32:38;3.97;;;2.80;;
7166;SDS011;3625;51.762;14.320;2023-05-18T06:35:06;5.70;;;2.90;;
7166;SDS011;3625;51.762;14.320;2023-05-18T06:37:36;5.43;;;2.70;;
7166;SDS011;3625;51.762;14.320;2023-05-18T06:40:05;7.13;;;3.10;;
7166;SDS011;3625;51.762;14.320;2023-05-18T06:42:35;5.00;;;3.27;;
7166;SDS011;3625;51.762;14.320;2023-05-18T06:45:24;6.93;;;2.67;;
7166;SDS011;3625;51.762;14.320;2023-05-18T06:47:59;8.27;;;2.70;;
7166;SDS011;3625;51.762;14.320;2023-05-18T06:50:29;6.73;;;2.90;;
7166;SDS011;3625;51.762;14.320;2023-05-18T06:52:58;6.20;;;2.57;;
7166;SDS011;3625;51.762;14.320;2023-05-18T06:55:28;4.43;;;2.53;;
7166;SDS011;3625;51.762;14.320;2023-05-18T06:57:57;3.63;;;2.20;;
7166;SDS011;3625;51.762;14.320;2023-05-18T07:00:26;4.67;;;2.30;;
7166;SDS011;3625;51.762;14.320;2023-05-18T07:02:55;4.50;;;2.50;;
7166;SDS011;3625;51.762;14.320;2023-05-18T07:05:25;6.43;;;2.80;;
7166;SDS011;3625;51.762;14.320;2023-05-18T07:07:54;3.57;;;2.07;;
7166;SDS011;3625;51.762;14.320;2023-05-18T07:10:23;5.83;;;2.37;;
7166;SDS011;3625;51.762;14.320;2023-05-18T07:12:51;4.90;;;2.20;;
7166;SDS011;3625;51.762;14.320;2023-05-18T07:15:20;4.60;;;2.10;;
7166;SDS011;3625;51.762;14.320;2023-05-18T07:17:51;5.30;;;2.27;;
7166;SDS011;3625;51.762;14.320;2023-05-18T07:20:19;4.63;;;2.10;;
7166;SDS011;3625;51.762;14.320;2023-05-18T07:22:53;4.57;;;2.40;;
7166;SDS011;3625;51.762;14.320;2023-05-18T07:25:21;5.60;;;2.13;;
7166;SDS011;3625;51.762;14.320;2023-05-18T07:27:51;4.30;;;2.00;;
7166;SDS011;3625;51.762;14.320;2023-05-18T07:30:21;5.93;;;2.10;;
7166;SDS011;3625;51.762;14.320;2023-05-18T07:32:49;5.63;;;2.20;;
7166;SDS011;3625;51.762;14.320;2023-05-18T07:35:19;4.67;;;2.03;;
7166;SDS011;3625;51.762;14.320;2023-05-18T07:37:49;6.27;;;2.63;;
7166;SDS011;3625;51.762;14.320;2023-05-18T07:40:20;7.47;;;2.10;;
7166;SDS011;3625;51.762;14.320;2023-05-18T07:42:49;3.90;;;1.73;;
7166;SDS011;3625;51.762;14.320;2023-05-18T07:45:17;6.43;;;2.50;;
7166;SDS011;3625;51.762;14.320;2023-05-18T07:47:46;9.60;;;2.60;;
7166;SDS011;3625;51.762;14.320;2023-05-18T07:50:14;6.23;;;2.10;;
7166;SDS011;3625;51.762;14.320;2023-05-18T07:52:43;5.67;;;2.47;;
7166;SDS011;3625;51.762;14.320;2023-05-18T07:55:11;7.22;;;2.53;;
7166;SDS011;3625;51.762;14.320;2023-05-18T07:57:41;6.57;;;2.10;;
7166;SDS011;3625;51.762;14.320;2023-05-18T08:00:10;6.57;;;2.63;;
7166;SDS011;3625;51.762;14.320;2023-05-18T08:02:41;4.77;;;2.10;;
7166;SDS011;3625;51.762;14.320;2023-05-18T08:05:10;4.20;;;2.70;;
7166;SDS011;3625;51.762;14.320;2023-05-18T08:07:39;4.47;;;2.05;;
7166;SDS011;3625;51.762;14.320;2023-05-18T08:10:08;3.85;;;1.90;;
7166;SDS011;3625;51.762;14.320;2023-05-18T08:12:37;5.30;;;2.42;;
7166;SDS011;3625;51.762;14.320;2023-05-18T08:15:08;5.10;;;2.30;;
7166;SDS011;3625;51.762;14.320;2023-05-18T08:17:38;3.83;;;1.70;;
7166;SDS011;3625;51.762;14.320;2023-05-18T08:20:07;6.65;;;2.25;;
7166;SDS011;3625;51.762;14.320;2023-05-18T08:22:37;5.18;;;3.08;;
7166;SDS011;3625;51.762;14.320;2023-05-18T08:25:06;4.68;;;2.20;;
7166;SDS011;3625;51.762;14.320;2023-05-18T08:27:36;7.93;;;2.40;;
7166;SDS011;3625;51.762;14.320;2023-05-18T08:30:05;4.95;;;2.30;;
7166;SDS011;3625;51.762;14.320;2023-05-18T08:32:36;8.15;;;2.22;;
7166;SDS011;3625;51.762;14.320;2023-05-18T08:35:05;4.40;;;2.10;;
7166;SDS011;3625;51.762;14.320;2023-05-18T08:37:35;4.40;;;2.00;;
7166;SDS011;3625;51.762;14.320;2023-05-18T08:40:05;5.03;;;1.85;;
7166;SDS011;3625;51.762;14.320;2023-05-18T08:42:38;3.67;;;1.90;;
7166;SDS011;3625;51.762;14.320;2023-05-18T08:45:20;5.25;;;2.28;;
7166;SDS011;3625;51.762;14.320;2023-05-18T08:47:57;5.88;;;2.08;;
7166;SDS011;3625;51.762;14.320;2023-05-18T08:50:28;4.03;;;1.90;;
7166;SDS011;3625;51.762;14.320;2023-05-18T08:53:00;5.57;;;2.20;;
7166;SDS011;3625;51.762;14.320;2023-05-18T08:55:32;5.53;;;2.03;;
7166;SDS011;3625;51.762;14.320;2023-05-18T08:58:03;3.72;;;1.73;;
7166;SDS011;3625;51.762;14.320;2023-05-18T09:01:09;5.30;;;1.92;;
7166;SDS011;3625;51.762;14.320;2023-05-18T09:03:39;5.15;;;2.05;;
7166;SDS011;3625;51.762;14.320;2023-05-18T09:06:09;4.20;;;2.20;;
7166;SDS011;3625;51.762;14.320;2023-05-18T09:08:38;3.70;;;2.05;;
7166;SDS011;3625;51.762;14.320;2023-05-18T09:11:08;4.03;;;1.67;;
7166;SDS011;3625;51.762;14.320;2023-05-18T09:13:39;7.43;;;2.28;;
7166;SDS011;3625;51.762;14.320;2023-05-18T09:16:11;4.03;;;2.05;;
7166;SDS011;3625;51.762;14.320;2023-05-18T09:18:39;4.78;;;2.28;;
7166;SDS011;3625;51.762;14.320;2023-05-18T09:21:08;7.90;;;2.10;;
7166;SDS011;3625;51.762;14.320;2023-05-18T09:23:38;6.15;;;1.95;;
7166;SDS011;3625;51.762;14.320;2023-05-18T09:26:07;7.00;;;1.88;;
7166;SDS011;3625;51.762;14.320;2023-05-18T09:28:37;9.77;;;2.33;;
7166;SDS011;3625;51.762;14.320;2023-05-18T09:31:08;5.88;;;2.35;;
7166;SDS011;3625;51.762;14.320;2023-05-18T09:33:45;4.32;;;1.60;;
7166;SDS011;3625;51.762;14.320;2023-05-18T09:36:15;4.80;;;1.75;;
7166;SDS011;3625;51.762;14.320;2023-05-18T09:38:50;4.68;;;2.08;;
7166;SDS011;3625;51.762;14.320;2023-05-18T09:41:19;6.68;;;2.40;;
7166;SDS011;3625;51.762;14.320;2023-05-18T09:43:48;4.47;;;2.08;;
7166;SDS011;3625;51.762;14.320;2023-05-18T09:46:19;4.55;;;1.65;;
7166;SDS011;3625;51.762;14.320;2023-05-18T09:48:49;5.72;;;1.77;;
7166;SDS011;3625;51.762;14.320;2023-05-18T09:51:21;4.47;;;2.10;;
7166;SDS011;3625;51.762;14.320;2023-05-18T09:53:54;3.85;;;1.90;;
7166;SDS011;3625;51.762;14.320;2023-05-18T09:56:25;3.55;;;1.83;;
7166;SDS011;3625;51.762;14.320;2023-05-18T09:58:54;2.30;;;1.65;;
7166;SDS011;3625;51.762;14.320;2023-05-18T10:01:24;4.65;;;2.45;;
7166;SDS011;3625;51.762;14.320;2023-05-18T10:03:52;3.38;;;1.65;;
7166;SDS011;3625;51.762;14.320;2023-05-18T10:06:30;7.30;;;2.17;;
7166;SDS011;3625;51.762;14.320;2023-05-18T10:09:00;3.72;;;1.77;;
7166;SDS011;3625;51.762;14.320;2023-05-18T10:11:31;3.72;;;2.15;;
7166;SDS011;3625;51.762;14.320;2023-05-18T10:14:01;2.30;;;1.60;;
7166;SDS011;3625;51.762;14.320;2023-05-18T10:16:31;4.60;;;1.80;;
7166;SDS011;3625;51.762;14.320;2023-05-18T10:19:00;4.22;;;1.83;;
7166;SDS011;3625;51.762;14.320;2023-05-18T10:21:35;4.45;;;1.90;;
7166;SDS011;3625;51.762;14.320;2023-05-18T10:24:05;5.82;;;2.03;;
7166;SDS011;3625;51.762;14.320;2023-05-18T10:26:38;4.03;;;2.15;;
7166;SDS011;3625;51.762;14.320;2023-05-18T10:29:11;6.20;;;2.20;;
7166;SDS011;3625;51.762;14.320;2023-05-18T10:31:42;5.35;;;1.73;;
7166;SDS011;3625;51.762;14.320;2023-05-18T10:34:13;5.95;;;1.88;;
7166;SDS011;3625;51.762;14.320;2023-05-18T10:36:45;3.97;;;1.70;;
7166;SDS011;3625;51.762;14.320;2023-05-18T10:39:14;3.78;;;1.90;;
7166;SDS011;3625;51.762;14.320;2023-05-18T10:41:45;4.70;;;1.90;;
7166;SDS011;3625;51.762;14.320;2023-05-18T10:44:15;4.28;;;1.90;;
7166;SDS011;3625;51.762;14.320;2023-05-18T10:46:46;4.30;;;2.03;;
7166;SDS011;3625;51.762;14.320;2023-05-18T10:49:16;3.17;;;2.00;;
7166;SDS011;3625;51.762;14.320;2023-05-18T10:51:51;5.47;;;2.15;;
7166;SDS011;3625;51.762;14.320;2023-05-18T10:54:21;2.95;;;1.77;;
7166;SDS011;3625;51.762;14.320;2023-05-18T10:56:50;4.00;;;2.00;;
7166;SDS011;3625;51.762;14.320;2023-05-18T10:59:20;6.03;;;2.00;;
7166;SDS011;3625;51.762;14.320;2023-05-18T11:01:51;4.35;;;2.00;;
7166;SDS011;3625;51.762;14.320;2023-05-18T11:04:23;4.45;;;1.63;;
7166;SDS011;3625;51.762;14.320;2023-05-18T11:06:56;3.10;;;1.77;;
7166;SDS011;3625;51.762;14.320;2023-05-18T11:09:26;3.35;;;1.92;;
7166;SDS011;3625;51.762;14.320;2023-05-18T11:11:56;5.38;;;1.92;;
7166;SDS011;3625;51.762;14.320;2023-05-18T11:14:27;3.45;;;2.00;;
7166;SDS011;3625;51.762;14.320;2023-05-18T11:22:46;5.05;;;1.83;;
7166;SDS011;3625;51.762;14.320;2023-05-18T11:25:36;7.18;;;1.98;;
7166;SDS011;3625;51.762;14.320;2023-05-18T11:28:12;6.18;;;2.10;;
7166;SDS011;3625;51.762;14.320;2023-05-18T11:30:45;4.60;;;1.92;;
7166;SDS011;3625;51.762;14.320;2023-05-18T11:33:21;4.80;;;2.03;;
7166;SDS011;3625;51.762;14.320;2023-05-18T11:35:57;3.30;;;1.77;;
7166;SDS011;3625;51.762;14.320;2023-05-18T11:38:49;3.78;;;2.05;;
7166;SDS011;3625;51.762;14.320;2023-05-18T11:41:27;3.60;;;1.90;;
7166;SDS011;3625;51.762;14.320;2023-05-18T11:44:04;3.10;;;1.90;;
7166;SDS011;3625;51.762;14.320;2023-05-18T11:46:52;5.55;;;2.17;;
7166;SDS011;3625;51.762;14.320;2023-05-18T11:49:28;3.35;;;1.77;;
7166;SDS011;3625;51.762;14.320;2023-05-18T11:52:03;4.00;;;1.98;;
7166;SDS011;3625;51.762;14.320;2023-05-18T11:54:38;6.38;;;2.00;;
7166;SDS011;3625;51.762;14.320;2023-05-18T11:57:10;6.35;;;2.10;;
7166;SDS011;3625;51.762;14.320;2023-05-18T11:59:41;5.25;;;1.88;;
7166;SDS011;3625;51.762;14.320;2023-05-18T12:02:12;3.70;;;1.80;;
7166;SDS011;3625;51.762;14.320;2023-05-18T12:04:50;3.75;;;1.40;;
7166;SDS011;3625;51.762;14.320;2023-05-18T12:07:20;5.25;;;1.88;;
7166;SDS011;3625;51.762;14.320;2023-05-18T12:09:50;5.25;;;1.60;;
7166;SDS011;3625;51.762;14.320;2023-05-18T12:12:19;5.40;;;2.33;;
7166;SDS011;3625;51.762;14.320;2023-05-18T12:14:52;4.38;;;1.70;;
7166;SDS011;3625;51.762;14.320;2023-05-18T12:17:23;3.95;;;2.10;;
7166;SDS011;3625;51.762;14.320;2023-05-18T12:20:08;5.80;;;1.70;;
7166;SDS011;3625;51.762;14.320;2023-05-18T12:22:39;4.05;;;1.70;;
7166;SDS011;3625;51.762;14.320;2023-05-18T12:25:08;6.15;;;1.80;;
7166;SDS011;3625;51.762;14.320;2023-05-18T12:27:38;5.68;;;2.22;;
7166;SDS011;3625;51.762;14.320;2023-05-18T12:30:09;3.88;;;1.92;;
7166;SDS011;3625;51.762;14.320;2023-05-18T12:32:43;6.15;;;2.00;;
7166;SDS011;3625;51.762;14.320;2023-05-18T12:35:14;3.83;;;1.50;;
7166;SDS011;3625;51.762;14.320;2023-05-18T12:37:43;4.03;;;1.40;;
7166;SDS011;3625;51.762;14.320;2023-05-18T12:40:13;3.50;;;1.50;;
7166;SDS011;3625;51.762;14.320;2023-05-18T12:42:52;5.10;;;1.80;;
7166;SDS011;3625;51.762;14.320;2023-05-18T12:45:22;3.95;;;1.98;;
7166;SDS011;3625;51.762;14.320;2023-05-18T12:47:53;4.50;;;1.90;;
7166;SDS011;3625;51.762;14.320;2023-05-18T12:50:24;4.28;;;1.70;;
7166;SDS011;3625;51.762;14.320;2023-05-18T12:52:53;4.25;;;2.03;;
7166;SDS011;3625;51.762;14.320;2023-05-18T12:55:23;3.47;;;1.63;;
7166;SDS011;3625;51.762;14.320;2023-05-18T12:57:58;4.25;;;1.65;;
7166;SDS011;3625;51.762;14.320;2023-05-18T13:00:32;3.85;;;1.50;;
7166;SDS011;3625;51.762;14.320;2023-05-18T13:03:04;3.28;;;1.40;;
7166;SDS011;3625;51.762;14.320;2023-05-18T13:05:39;4.00;;;1.70;;
7166;SDS011;3625;51.762;14.320;2023-05-18T13:08:12;4.80;;;1.95;;
7166;SDS011;3625;51.762;14.320;2023-05-18T13:10:43;4.38;;;1.83;;
7166;SDS011;3625;51.762;14.320;2023-05-18T13:13:20;3.88;;;1.80;;
7166;SDS011;3625;51.762;14.320;2023-05-18T13:15:49;3.55;;;1.60;;
7166;SDS011;3625;51.762;14.320;2023-05-18T13:18:18;6.25;;;2.17;;
7166;SDS011;3625;51.762;14.320;2023-05-18T13:20:51;4.63;;;1.83;;
7166;SDS011;3625;51.762;14.320;2023-05-18T13:23:22;5.50;;;1.70;;
7166;SDS011;3625;51.762;14.320;2023-05-18T13:25:53;2.58;;;1.70;;
7166;SDS011;3625;51.762;14.320;2023-05-18T13:28:25;4.97;;;1.60;;
7166;SDS011;3625;51.762;14.320;2023-05-18T13:30:54;3.03;;;1.55;;
7166;SDS011;3625;51.762;14.320;2023-05-18T13:33:22;3.42;;;1.75;;
7166;SDS011;3625;51.762;14.320;2023-05-18T13:35:53;5.38;;;1.95;;
7166;SDS011;3625;51.762;14.320;2023-05-18T13:38:23;6.65;;;1.92;;
7166;SDS011;3625;51.762;14.320;2023-05-18T13:40:51;5.15;;;2.00;;
7166;SDS011;3625;51.762;14.320;2023-05-18T13:43:21;3.35;;;1.70;;
7166;SDS011;3625;51.762;14.320;2023-05-18T13:45:50;3.38;;;1.60;;
7166;SDS011;3625;51.762;14.320;2023-05-18T13:48:18;4.88;;;1.75;;
7166;SDS011;3625;51.762;14.320;2023-05-18T13:50:47;3.60;;;1.90;;
7166;SDS011;3625;51.762;14.320;2023-05-18T13:53:17;6.45;;;1.83;;
7166;SDS011;3625;51.762;14.320;2023-05-18T13:55:45;5.07;;;2.20;;
7166;SDS011;3625;51.762;14.320;2023-05-18T13:58:14;2.85;;;1.70;;
7166;SDS011;3625;51.762;14.320;2023-05-18T14:00:43;4.07;;;1.63;;
7166;SDS011;3625;51.762;14.320;2023-05-18T14:03:13;4.20;;;1.85;;
7166;SDS011;3625;51.762;14.320;2023-05-18T14:05:43;3.88;;;1.83;;
7166;SDS011;3625;51.762;14.320;2023-05-18T14:08:11;2.20;;;1.50;;
7166;SDS011;3625;51.762;14.320;2023-05-18T14:10:41;4.20;;;1.85;;
7166;SDS011;3625;51.762;14.320;2023-05-18T14:13:10;3.17;;;2.05;;
7166;SDS011;3625;51.762;14.320;2023-05-18T14:15:38;5.45;;;1.73;;
7166;SDS011;3625;51.762;14.320;2023-05-18T14:18:07;2.65;;;1.77;;
7166;SDS011;3625;51.762;14.320;2023-05-18T14:20:36;5.30;;;2.30;;
7166;SDS011;3625;51.762;14.320;2023-05-18T14:23:04;6.20;;;1.98;;
7166;SDS011;3625;51.762;14.320;2023-05-18T14:25:35;3.22;;;1.73;;
7166;SDS011;3625;51.762;14.320;2023-05-18T14:28:05;4.10;;;2.25;;
7166;SDS011;3625;51.762;14.320;2023-05-18T14:30:35;3.65;;;1.73;;
7166;SDS011;3625;51.762;14.320;2023-05-18T14:33:04;5.75;;;1.77;;
7166;SDS011;3625;51.762;14.320;2023-05-18T14:35:33;4.05;;;2.50;;
7166;SDS011;3625;51.762;14.320;2023-05-18T14:38:02;7.13;;;3.00;;
7166;SDS011;3625;51.762;14.320;2023-05-18T14:40:30;3.42;;;1.80;;
7166;SDS011;3625;51.762;14.320;2023-05-18T14:42:59;4.15;;;1.98;;
7166;SDS011;3625;51.762;14.320;2023-05-18T14:45:28;5.47;;;2.53;;
7166;SDS011;3625;51.762;14.320;2023-05-18T14:47:57;5.68;;;2.70;;
7166;SDS011;3625;51.762;14.320;2023-05-18T14:50:26;3.90;;;1.80;;
7166;SDS011;3625;51.762;14.320;2023-05-18T14:52:55;2.33;;;1.40;;
7166;SDS011;3625;51.762;14.320;2023-05-18T14:55:23;3.45;;;1.77;;
7166;SDS011;3625;51.762;14.320;2023-05-18T14:57:52;4.28;;;1.63;;
7166;SDS011;3625;51.762;14.320;2023-05-18T15:00:21;3.40;;;1.70;;
7166;SDS011;3625;51.762;14.320;2023-05-18T15:02:51;3.63;;;1.80;;
7166;SDS011;3625;51.762;14.320;2023-05-18T15:05:19;3.58;;;1.55;;
7166;SDS011;3625;51.762;14.320;2023-05-18T15:07:48;3.47;;;1.55;;
7166;SDS011;3625;51.762;14.320;2023-05-18T15:10:16;3.05;;;2.00;;
7166;SDS011;3625;51.762;14.320;2023-05-18T15:12:46;3.17;;;1.77;;
7166;SDS011;3625;51.762;14.320;2023-05-18T15:15:14;5.05;;;1.63;;
7166;SDS011;3625;51.762;14.320;2023-05-18T15:17:43;4.50;;;1.80;;
7166;SDS011;3625;51.762;14.320;2023-05-18T15:20:13;3.40;;;1.58;;
7166;SDS011;3625;51.762;14.320;2023-05-18T15:22:42;3.42;;;1.90;;
7166;SDS011;3625;51.762;14.320;2023-05-18T15:25:10;3.90;;;1.65;;
7166;SDS011;3625;51.762;14.320;2023-05-18T15:27:38;3.25;;;1.58;;
7166;SDS011;3625;51.762;14.320;2023-05-18T15:30:07;3.33;;;1.95;;